Time;durP1;ratioP1;P1;durP2;ratioP2;P2;SDS_P1;SDS_P2;PMS_P1;PMS_P2;Temp;Humidity;BMP_temperature;BMP_pressure;BME280_temperature;BME280_humidity;BME280_pressure;Samples;Min_cycle;Max_cycle;Signal;HPM_P1;HPM_P2
2023/05/28 00:00:06;;;;;;;0.65;0.45;;;;;;;14.51;100.00;97496.16;5046721;28;20116;-88
2023/05/28 00:02:33;;;;;;;1.75;0.73;;;;;;;14.54;100.00;97506.66;5032210;28;20020;-88
2023/05/28 00:04:58;;;;;;;0.45;0.45;;;;;;;14.60;100.00;97513.41;5065996;28;20021;-88
2023/05/28 00:07:24;;;;;;;1.92;0.60;;;;;;;14.62;100.00;97520.38;5038606;28;20021;-88
2023/05/28 00:09:50;;;;;;;0.40;0.32;;;;;;;14.55;100.00;97518.31;5048134;28;20027;-88
2023/05/28 00:12:16;;;;;;;0.20;0.20;;;;;;;14.61;100.00;97529.41;5054652;28;20033;-89
2023/05/28 00:14:41;;;;;;;3.88;0.80;;;;;;;14.62;100.00;97531.13;5045953;28;20020;-88
2023/05/28 00:17:07;;;;;;;1.15;0.50;;;;;;;14.62;100.00;97530.28;5072739;28;20020;-87
2023/05/28 00:19:32;;;;;;;1.20;0.93;;;;;;;14.65;100.00;97530.91;5056373;28;20023;-88
2023/05/28 00:21:58;;;;;;;1.45;0.90;;;;;;;14.69;100.00;97531.53;5058373;28;20056;-88
2023/05/28 00:24:23;;;;;;;0.43;0.35;;;;;;;14.71;100.00;97528.69;5053847;28;20488;-88
2023/05/28 00:26:49;;;;;;;0.65;0.47;;;;;;;14.74;100.00;97521.22;5060637;28;20029;-88
2023/05/28 00:29:15;;;;;;;0.80;0.65;;;;;;;14.78;100.00;97521.84;5066362;28;20027;-87
2023/05/28 00:31:40;;;;;;;1.67;0.80;;;;;;;14.75;100.00;97524.78;5043717;28;20044;-87
2023/05/28 00:34:05;;;;;;;0.70;0.68;;;;;;;14.73;100.00;97527.63;5068385;28;20103;-88
2023/05/28 00:36:31;;;;;;;1.05;0.38;;;;;;;14.72;100.00;97523.19;5049911;28;20025;-89
2023/05/28 00:38:56;;;;;;;0.75;0.32;;;;;;;14.69;100.00;97520.75;5062510;28;20020;-88
2023/05/28 00:41:22;;;;;;;3.97;0.68;;;;;;;14.73;100.00;97521.38;5053110;28;20059;-88
2023/05/28 00:43:51;;;;;;;0.32;0.32;;;;;;;14.70;100.00;97509.00;5060370;28;20013;-88
2023/05/28 00:46:19;;;;;;;0.88;0.75;;;;;;;14.72;100.00;97514.25;5052436;28;20032;-87
2023/05/28 00:48:45;;;;;;;0.65;0.60;;;;;;;14.75;100.00;97514.03;5044982;28;20106;-86
2023/05/28 00:51:11;;;;;;;0.70;0.55;;;;;;;14.76;100.00;97504.97;5062372;28;20096;-89
2023/05/28 00:53:37;;;;;;;1.33;0.60;;;;;;;14.79;100.00;97508.28;5057795;28;20098;-88
2023/05/28 00:56:03;;;;;;;1.00;0.70;;;;;;;14.68;100.00;97502.00;5063669;28;20032;-86
2023/05/28 00:58:29;;;;;;;0.25;0.25;;;;;;;14.73;100.00;97510.59;5056491;28;20021;-87
2023/05/28 01:00:55;;;;;;;0.88;0.68;;;;;;;14.72;100.00;97490.03;5054325;28;20028;-86
2023/05/28 01:03:22;;;;;;;2.38;0.98;;;;;;;14.74;100.00;97497.00;5046867;28;20031;-86
2023/05/28 01:05:48;;;;;;;0.22;0.22;;;;;;;14.73;100.00;97500.69;5063889;28;20025;-87
2023/05/28 01:08:13;;;;;;;1.98;1.10;;;;;;;14.80;100.00;97503.72;5046011;28;20017;-88
2023/05/28 01:10:39;;;;;;;0.77;0.40;;;;;;;14.83;100.00;97507.03;5048907;28;20024;-91
2023/05/28 01:13:06;;;;;;;1.17;0.93;;;;;;;14.88;100.00;97512.06;5042669;28;20381;-88
2023/05/28 01:15:32;;;;;;;0.45;0.43;;;;;;;14.90;100.00;97504.72;5046500;28;20178;-87
2023/05/28 01:17:59;;;;;;;0.35;0.35;;;;;;;14.87;100.00;97503.13;5044184;28;20111;-88
2023/05/28 01:20:29;;;;;;;1.73;0.82;;;;;;;14.77;100.00;97507.53;5062498;28;20024;-86
2023/05/28 01:23:00;;;;;;;0.90;0.68;;;;;;;14.82;100.00;97499.09;5049119;28;20594;-87
2023/05/28 01:25:26;;;;;;;1.52;1.00;;;;;;;14.84;100.00;97502.50;5048297;28;20519;-87
2023/05/28 01:27:53;;;;;;;2.38;1.23;;;;;;;14.90;100.00;97499.34;5056121;28;20024;-88
2023/05/28 01:30:18;;;;;;;4.18;0.50;;;;;;;14.87;100.00;97478.03;5064490;28;20423;-87
2023/05/28 01:32:44;;;;;;;0.50;0.30;;;;;;;14.90;100.00;97475.94;5055923;28;20025;-87
2023/05/28 01:35:10;;;;;;;0.88;0.70;;;;;;;14.89;100.00;97489.56;5042048;28;20086;-87
2023/05/28 01:37:50;;;;;;;0.63;0.45;;;;;;;14.91;100.00;97491.16;5053883;28;20040;-87
2023/05/28 01:40:17;;;;;;;0.65;0.63;;;;;;;14.94;100.00;97487.34;5055879;28;20024;-87
2023/05/28 01:42:44;;;;;;;2.00;0.50;;;;;;;15.03;100.00;97489.28;5045579;28;20036;-87
2023/05/28 01:45:10;;;;;;;1.58;0.70;;;;;;;14.96;100.00;97490.75;5058632;28;20131;-87
2023/05/28 01:47:36;;;;;;;1.30;0.60;;;;;;;14.98;100.00;97491.50;5072427;28;20536;-87
2023/05/28 01:50:02;;;;;;;0.73;0.43;;;;;;;14.98;100.00;97495.03;5055693;28;20024;-87
2023/05/28 01:52:28;;;;;;;0.63;0.63;;;;;;;14.98;100.00;97491.50;5072055;28;20472;-87
2023/05/28 01:54:53;;;;;;;0.20;0.20;;;;;;;15.02;100.00;97498.34;5051468;28;20029;-87
2023/05/28 01:57:19;;;;;;;0.88;0.52;;;;;;;15.01;100.00;97496.66;5052442;28;20029;-88
2023/05/28 01:59:44;;;;;;;1.38;1.27;;;;;;;14.99;100.00;97495.91;5035253;28;20523;-88
2023/05/28 02:02:10;;;;;;;1.30;0.80;;;;;;;15.10;100.00;97506.69;5057545;28;20009;-89
2023/05/28 02:04:35;;;;;;;1.48;1.05;;;;;;;15.02;100.00;97511.81;5048173;28;20031;-86
2023/05/28 02:07:01;;;;;;;0.90;0.90;;;;;;;14.97;100.00;97508.66;5075065;28;20111;-85
2023/05/28 02:09:26;;;;;;;0.80;0.70;;;;;;;14.99;100.00;97512.91;5065118;28;20067;-87
2023/05/28 02:11:52;;;;;;;0.30;0.30;;;;;;;15.08;100.00;97514.00;5051707;28;20086;-86
2023/05/28 02:14:17;;;;;;;2.08;1.02;;;;;;;15.08;100.00;97514.00;5052085;28;20055;-88
2023/05/28 02:16:47;;;;;;;1.05;0.77;;;;;;;15.06;100.00;97497.13;5036182;28;20032;-88
2023/05/28 02:19:13;;;;;;;15.90;9.57;;;;;;;15.13;100.00;97503.75;5041034;28;20029;-88
2023/05/28 02:21:39;;;;;;;1.17;1.00;;;;;;;15.13;100.00;97496.50;5063728;28;20035;-88
2023/05/28 02:24:05;;;;;;;0.63;0.63;;;;;;;15.16;100.00;97512.41;5068671;28;20024;-88
2023/05/28 02:26:31;;;;;;;0.40;0.40;;;;;;;15.11;100.00;97503.84;5052696;28;20025;-87
2023/05/28 02:28:56;;;;;;;0.65;0.65;;;;;;;15.10;100.00;97499.44;5037945;28;20095;-87
2023/05/28 02:31:22;;;;;;;0.40;0.40;;;;;;;15.14;100.00;97500.03;5061721;28;20052;-88
2023/05/28 02:33:47;;;;;;;1.55;0.80;;;;;;;15.17;100.00;97503.34;5038568;28;20029;-88
2023/05/28 02:36:13;;;;;;;1.25;0.98;;;;;;;15.17;100.00;97492.56;5052949;28;20028;-87
2023/05/28 02:38:39;;;;;;;1.55;0.77;;;;;;;15.22;100.00;97503.00;5076717;28;20029;-88
2023/05/28 02:41:05;;;;;;;1.15;0.73;;;;;;;15.18;100.00;97504.22;5049827;28;20493;-87
2023/05/28 02:43:31;;;;;;;0.60;0.57;;;;;;;15.26;100.00;97511.69;5052016;28;20064;-87
2023/05/28 02:45:56;;;;;;;0.50;0.50;;;;;;;15.28;100.00;97513.28;5062575;28;20032;-88
2023/05/28 02:48:22;;;;;;;1.17;0.77;;;;;;;15.19;100.00;97519.41;5064563;28;20036;-87
2023/05/28 02:50:47;;;;;;;1.15;0.70;;;;;;;15.25;100.00;97509.97;5056547;28;20062;-87
2023/05/28 02:53:13;;;;;;;0.95;0.60;;;;;;;15.26;100.00;97509.00;5069628;28;20032;-88
2023/05/28 02:55:38;;;;;;;0.68;0.68;;;;;;;15.26;100.00;97520.59;5048231;28;20068;-88
2023/05/28 02:58:05;;;;;;;0.30;0.30;;;;;;;15.24;100.00;97519.88;5073116;28;20025;-87
2023/05/28 03:00:31;;;;;;;0.55;0.47;;;;;;;15.32;100.00;97516.59;5047242;28;20103;-86
2023/05/28 03:02:56;;;;;;;1.75;0.70;;;;;;;15.30;100.00;97522.09;5060946;28;20028;-86
2023/05/28 03:05:22;;;;;;;0.75;0.73;;;;;;;15.33;100.00;97521.84;5046370;28;20031;-86
2023/05/28 03:07:48;;;;;;;0.80;0.80;;;;;;;15.38;100.00;97524.16;5065707;28;20033;-86
2023/05/28 03:10:14;;;;;;;2.50;0.98;;;;;;;15.35;100.00;97519.84;5052065;28;20558;-86
2023/05/28 03:12:39;;;;;;;1.65;0.98;;;;;;;15.33;100.00;97518.28;5045693;28;20056;-87
2023/05/28 03:15:05;;;;;;;0.40;0.40;;;;;;;15.29;100.00;97514.13;5051209;28;20057;-86
2023/05/28 03:17:31;;;;;;;2.38;0.80;;;;;;;15.25;100.00;97512.66;5053549;28;20125;-86
2023/05/28 03:19:57;;;;;;;0.45;0.45;;;;;;;15.27;100.00;97522.34;5050864;28;20027;-86
2023/05/28 03:22:23;;;;;;;0.75;0.75;;;;;;;15.30;100.00;97521.22;5053995;28;20027;-86
2023/05/28 03:24:48;;;;;;;0.90;0.55;;;;;;;15.31;100.00;97521.09;5041515;28;20071;-90
2023/05/28 03:27:14;;;;;;;0.45;0.45;;;;;;;15.34;100.00;97512.78;5068390;28;20025;-90
2023/05/28 03:29:39;;;;;;;0.22;0.22;;;;;;;15.41;100.00;97511.25;5071548;28;20039;-88
2023/05/28 03:32:05;;;;;;;0.60;0.52;;;;;;;15.46;100.00;97517.16;5061217;28;20035;-87
2023/05/28 03:34:31;;;;;;;0.30;0.30;;;;;;;15.46;100.00;97511.78;5046749;28;20040;-87
2023/05/28 03:36:58;;;;;;;0.32;0.32;;;;;;;15.50;100.00;97513.28;5066498;28;20068;-87
2023/05/28 03:39:23;;;;;;;1.20;1.08;;;;;;;15.53;100.00;97509.47;5058679;28;20036;-87
2023/05/28 03:41:49;;;;;;;0.30;0.30;;;;;;;15.52;100.00;97499.66;5070417;28;20027;-87
2023/05/28 03:44:16;;;;;;;4.22;1.30;;;;;;;15.40;100.00;97493.41;5063660;28;20090;-87
2023/05/28 03:46:41;;;;;;;1.73;0.88;;;;;;;15.36;100.00;97491.94;5050877;28;20032;-88
2023/05/28 03:49:07;;;;;;;0.65;0.65;;;;;;;15.47;100.00;97491.06;5037046;28;20488;-89
2023/05/28 03:51:33;;;;;;;0.65;0.50;;;;;;;15.48;100.00;97482.88;5066552;28;20043;-88
2023/05/28 03:53:58;;;;;;;1.90;0.65;;;;;;;15.49;100.00;97489.97;5078574;28;20028;-89
2023/05/28 03:56:24;;;;;;;2.20;0.73;;;;;;;15.55;100.00;97494.88;5055064;28;20028;-88
2023/05/28 03:58:50;;;;;;;2.15;0.82;;;;;;;15.50;100.00;97497.09;5058440;28;20458;-87
2023/05/28 04:01:15;;;;;;;0.52;0.52;;;;;;;15.54;100.00;97503.94;5050318;28;20040;-88
2023/05/28 04:03:41;;;;;;;0.40;0.35;;;;;;;15.56;100.00;97506.50;5044199;28;20027;-87
2023/05/28 04:06:07;;;;;;;1.13;0.55;;;;;;;15.52;100.00;97516.69;5059772;28;20024;-86
2023/05/28 04:08:33;;;;;;;1.02;0.93;;;;;;;15.57;100.00;97511.75;5083492;28;20058;-88
2023/05/28 04:10:58;;;;;;;1.20;0.90;;;;;;;15.56;100.00;97518.16;5057715;28;20024;-89
2023/05/28 04:13:24;;;;;;;2.30;0.93;;;;;;;15.59;100.00;97515.22;5063234;28;20071;-86
2023/05/28 04:15:50;;;;;;;0.77;0.52;;;;;;;15.52;100.00;97511.28;5048252;28;20091;-89
2023/05/28 04:18:16;;;;;;;0.93;0.93;;;;;;;15.57;100.00;97510.91;5053502;28;20028;-89
2023/05/28 04:20:41;;;;;;;1.10;0.60;;;;;;;15.64;100.00;97518.38;5058992;28;20029;-89
2023/05/28 04:23:07;;;;;;;0.70;0.70;;;;;;;15.75;100.00;97519.31;5044806;28;20120;-89
2023/05/28 04:25:33;;;;;;;1.27;0.93;;;;;;;15.77;100.00;97517.34;5039659;28;20041;-87
2023/05/28 04:28:00;;;;;;;0.85;0.32;;;;;;;15.82;100.00;97520.50;5051114;28;20115;-85
2023/05/28 04:30:26;;;;;;;1.73;0.85;;;;;;;15.82;100.00;97513.28;5072675;28;20049;-86
2023/05/28 04:32:52;;;;;;;0.50;0.50;;;;;;;15.78;100.00;97508.28;5058061;28;20547;-85
2023/05/28 04:35:17;;;;;;;1.02;0.75;;;;;;;15.71;100.00;97507.94;5074198;28;20051;-87
2023/05/28 04:37:44;;;;;;;2.80;0.73;;;;;;;15.71;100.00;97508.78;5065144;28;20404;-86
2023/05/28 04:40:13;;;;;;;0.57;0.55;;;;;;;15.59;100.00;97501.72;5049563;28;20028;-87
2023/05/28 04:42:42;;;;;;;1.40;0.90;;;;;;;15.64;100.00;97504.88;5048105;28;20035;-86
2023/05/28 04:45:09;;;;;;;3.40;0.73;;;;;;;15.72;100.00;97496.13;5060030;28;20582;-86
2023/05/28 04:47:36;;;;;;;1.00;0.90;;;;;;;15.71;100.00;97500.72;5053617;28;20032;-86
2023/05/28 04:50:03;;;;;;;2.72;1.77;;;;;;;15.68;100.00;97495.56;5061489;28;20021;-86
2023/05/28 04:52:30;;;;;;;2.85;1.42;;;;;;;15.67;100.00;97501.94;5054770;28;20032;-88
2023/05/28 04:54:56;;;;;;;3.40;1.05;;;;;;;15.66;100.00;97502.91;5061518;28;20036;-87
2023/05/28 04:57:21;;;;;;;1.35;0.40;;;;;;;15.70;100.00;97509.78;5054912;28;20025;-86
2023/05/28 04:59:48;;;;;;;2.33;1.25;;;;;;;15.73;100.00;97523.00;5039040;28;20057;-86
2023/05/28 05:02:16;;;;;;;1.20;0.43;;;;;;;15.69;100.00;97512.56;5037297;28;20025;-85
2023/05/28 05:04:42;;;;;;;1.70;1.10;;;;;;;15.62;100.00;97511.41;5047230;28;20033;-86
2023/05/28 05:07:07;;;;;;;1.58;0.77;;;;;;;15.58;100.00;97520.72;5054137;28;20035;-86
2023/05/28 05:09:33;;;;;;;0.70;0.60;;;;;;;15.62;100.00;97522.19;5063430;28;20028;-86
2023/05/28 05:11:58;;;;;;;1.27;0.77;;;;;;;15.59;100.00;97522.44;5047839;28;20029;-86
2023/05/28 05:14:24;;;;;;;1.02;0.60;;;;;;;15.61;100.00;97532.09;5060051;28;20065;-89
2023/05/28 05:16:49;;;;;;;2.15;1.40;;;;;;;15.63;100.00;97540.91;5040482;28;20029;-90
2023/05/28 05:19:15;;;;;;;1.73;0.85;;;;;;;15.62;100.00;97544.63;5050778;28;20032;-92
2023/05/28 05:21:40;;;;;;;0.95;0.75;;;;;;;15.60;100.00;97543.88;5060778;28;20044;-91
2023/05/28 05:24:06;;;;;;;0.85;0.75;;;;;;;15.58;100.00;97548.53;5066959;28;20111;-90
2023/05/28 05:26:32;;;;;;;0.80;0.80;;;;;;;15.57;100.00;97546.81;5043549;28;20037;-91
2023/05/28 05:28:57;;;;;;;4.72;1.63;;;;;;;15.57;100.00;97537.84;5071818;28;20158;-91
2023/05/28 05:31:22;;;;;;;0.75;0.75;;;;;;;15.46;100.00;97536.03;5043258;28;20045;-92
2023/05/28 05:33:48;;;;;;;0.73;0.40;;;;;;;15.63;100.00;97546.31;5058245;28;20408;-92
2023/05/28 05:36:13;;;;;;;0.32;0.28;;;;;;;15.70;100.00;97549.38;5045092;28;20086;-90
2023/05/28 05:38:39;;;;;;;3.97;1.52;;;;;;;15.72;100.00;97553.63;5046093;28;20093;-91
2023/05/28 05:41:04;;;;;;;1.00;0.68;;;;;;;15.82;100.00;97564.53;5054483;28;20029;-90
2023/05/28 05:43:30;;;;;;;0.55;0.55;;;;;;;15.88;100.00;97563.16;5066827;28;20028;-89
2023/05/28 05:45:55;;;;;;;0.77;0.77;;;;;;;15.97;100.00;97563.25;5070700;28;20047;-91
2023/05/28 05:48:21;;;;;;;1.13;0.70;;;;;;;16.01;100.00;97564.72;5074245;28;20109;-89
2023/05/28 05:50:50;;;;;;;0.93;0.90;;;;;;;15.94;100.00;97565.34;5058511;28;20036;-90
2023/05/28 05:53:17;;;;;;;1.10;0.93;;;;;;;15.86;100.00;97557.03;5075067;28;20028;-90
2023/05/28 05:55:43;;;;;;;0.38;0.32;;;;;;;15.84;100.00;97567.97;5052083;28;20507;-90
2023/05/28 05:58:08;;;;;;;1.63;0.70;;;;;;;15.84;100.00;97559.88;5050174;28;20025;-90
2023/05/28 06:00:34;;;;;;;0.50;0.50;;;;;;;15.92;100.00;97561.94;5061086;28;20032;-89
2023/05/28 06:03:00;;;;;;;0.10;0.10;;;;;;;15.87;100.00;97553.38;5052870;28;20017;-88
2023/05/28 06:05:26;;;;;;;0.68;0.55;;;;;;;15.95;100.00;97556.28;5053126;28;20033;-88
2023/05/28 06:07:52;;;;;;;0.47;0.47;;;;;;;16.00;100.00;97554.03;5052077;28;20032;-87
2023/05/28 06:10:18;;;;;;;0.38;0.30;;;;;;;16.01;100.00;97548.53;5044660;28;20037;-86
2023/05/28 06:12:43;;;;;;;1.85;1.27;;;;;;;16.14;100.00;97559.16;5052862;28;20033;-88
2023/05/28 06:15:09;;;;;;;1.23;1.13;;;;;;;16.15;100.00;97558.19;5062692;28;20496;-87
2023/05/28 06:17:35;;;;;;;0.68;0.63;;;;;;;16.21;100.00;97568.47;5068318;28;20033;-88
2023/05/28 06:20:00;;;;;;;1.00;0.70;;;;;;;16.17;100.00;97561.59;5055568;28;20553;-87
2023/05/28 06:22:26;;;;;;;1.23;1.02;;;;;;;16.32;100.00;97567.53;5045166;28;20048;-89
2023/05/28 06:24:54;;;;;;;2.00;1.38;;;;;;;16.37;100.00;97570.69;5044455;28;20027;-91
2023/05/28 06:27:20;;;;;;;0.80;0.80;;;;;;;16.31;100.00;97563.97;5058268;28;20033;-91
2023/05/28 06:29:46;;;;;;;0.80;0.25;;;;;;;16.26;100.00;97569.78;5036644;28;20110;-90
2023/05/28 06:32:13;;;;;;;4.55;1.15;;;;;;;16.33;100.00;97570.13;5054024;28;20024;-90
2023/05/28 06:34:38;;;;;;;1.45;1.20;;;;;;;16.31;100.00;97561.28;5064365;28;20078;-89
2023/05/28 06:37:04;;;;;;;7.88;4.22;;;;;;;16.33;100.00;97564.72;5037817;28;20554;-89
2023/05/28 06:39:30;;;;;;;2.78;0.65;;;;;;;16.21;100.00;97563.06;5054844;28;20477;-90
2023/05/28 06:41:56;;;;;;;0.15;0.15;;;;;;;16.23;100.00;97563.78;5072316;28;20025;-88
2023/05/28 06:44:21;;;;;;;0.90;0.90;;;;;;;16.18;100.00;97561.44;5041615;28;20499;-88
2023/05/28 06:46:47;;;;;;;0.82;0.40;;;;;;;16.19;100.00;97565.00;5035362;28;20032;-86
2023/05/28 06:49:12;;;;;;;1.75;0.52;;;;;;;16.23;100.00;97555.69;5035411;28;20496;-88
2023/05/28 06:51:38;;;;;;;1.00;1.00;;;;;;;16.26;100.00;97558.13;5065138;28;20058;-86
2023/05/28 06:54:04;;;;;;;0.32;0.22;;;;;;;16.20;100.00;97555.94;5055714;28;20031;-87
2023/05/28 06:56:30;;;;;;;0.65;0.38;;;;;;;16.15;100.00;97558.19;5048036;28;20098;-89
2023/05/28 06:58:55;;;;;;;0.77;0.40;;;;;;;16.14;100.00;97551.91;5067337;28;20373;-89
2023/05/28 07:01:21;;;;;;;0.22;0.22;;;;;;;16.21;100.00;97569.28;5052019;28;20032;-87
2023/05/28 07:03:46;;;;;;;3.70;1.40;;;;;;;16.25;100.00;97572.59;5058847;28;20021;-87
2023/05/28 07:06:12;;;;;;;1.15;0.98;;;;;;;16.26;100.00;97572.47;5056449;28;20110;-87
2023/05/28 07:08:41;;;;;;;5.70;2.05;;;;;;;16.29;100.00;97568.66;5050002;28;20028;-88
2023/05/28 07:11:08;;;;;;;0.63;0.63;;;;;;;16.26;100.00;97567.06;5069737;28;20020;-91
2023/05/28 07:13:33;;;;;;;2.05;0.52;;;;;;;16.19;100.00;97573.09;5053786;28;20035;-91
2023/05/28 07:15:59;;;;;;;0.85;0.85;;;;;;;16.29;100.00;97582.16;5038936;28;20016;-90
2023/05/28 07:18:26;;;;;;;0.95;0.70;;;;;;;16.39;100.00;97576.84;5047813;28;20385;-89
2023/05/28 07:20:51;;;;;;;0.70;0.38;;;;;;;16.47;100.00;97588.69;5063422;28;20039;-90
2023/05/28 07:23:17;;;;;;;14.20;3.83;;;;;;;16.53;100.00;97585.47;5035559;28;20029;-88
2023/05/28 07:25:43;;;;;;;5.15;3.22;;;;;;;16.64;100.00;97581.91;5043568;28;20076;-89
2023/05/28 07:28:08;;;;;;;8.60;5.38;;;;;;;16.62;100.00;97564.94;5052006;28;20400;-87
2023/05/28 07:30:34;;;;;;;3.03;1.58;;;;;;;16.60;100.00;97557.00;5055024;28;20432;-88
2023/05/28 07:32:59;;;;;;;1.30;0.70;;;;;;;16.61;100.00;97549.75;5047109;28;20024;-88
2023/05/28 07:35:25;;;;;;;10.85;6.47;;;;;;;16.65;100.00;97545.78;5063669;28;20055;-90
2023/05/28 07:37:53;;;;;;;3.50;1.80;;;;;;;16.68;100.00;97540.09;5046088;28;20123;-85
2023/05/28 07:40:19;;;;;;;5.22;2.70;;;;;;;16.66;100.00;97537.56;5055842;28;20029;-86
2023/05/28 07:42:44;;;;;;;10.68;4.93;;;;;;;16.70;100.00;97524.66;5038412;28;20019;-90
2023/05/28 07:45:10;;;;;;;2.50;2.30;;;;;;;16.74;100.00;97534.16;5040071;28;20017;-88
2023/05/28 07:47:36;;;;;;;8.90;4.88;;;;;;;16.85;100.00;97530.53;5053589;28;20027;-88
2023/05/28 07:50:03;;;;;;;13.65;6.22;;;;;;;16.92;100.00;97521.75;5059501;28;20068;-90
2023/05/28 07:52:29;;;;;;;3.30;2.05;;;;;;;17.05;100.00;97526.94;5066079;28;20025;-90
2023/05/28 07:54:58;;;;;;;1.10;1.00;;;;;;;17.15;100.00;97517.03;5051778;28;20039;-88
2023/05/28 07:57:24;;;;;;;1.35;1.23;;;;;;;17.25;100.00;97509.81;5077410;28;20616;-87
2023/05/28 07:59:49;;;;;;;5.35;2.10;;;;;;;17.42;100.00;97509.16;5070481;28;20058;-87
2023/05/28 08:02:15;;;;;;;2.25;1.27;;;;;;;17.49;100.00;97496.78;5082753;28;20111;-87
2023/05/28 08:04:41;;;;;;;6.60;2.22;;;;;;;17.58;100.00;97496.00;5063928;28;20028;-87
2023/05/28 08:07:06;;;;;;;6.63;2.53;;;;;;;17.69;100.00;97482.31;5063348;28;20040;-87
2023/05/28 08:09:32;;;;;;;1.42;1.08;;;;;;;17.78;100.00;97473.34;5051750;28;20033;-89
2023/05/28 08:11:58;;;;;;;1.92;1.70;;;;;;;18.01;100.00;97468.53;5044883;28;20052;-87
2023/05/28 08:14:23;;;;;;;1.95;1.42;;;;;;;18.14;100.00;97460.13;5051488;28;20063;-84
2023/05/28 08:16:49;;;;;;;1.45;1.00;;;;;;;18.17;100.00;97446.31;5060186;28;20112;-86
2023/05/28 08:19:15;;;;;;;1.05;0.70;;;;;;;18.00;100.00;97445.16;5058813;28;20031;-86
2023/05/28 08:21:40;;;;;;;1.25;1.10;;;;;;;18.16;100.00;97444.56;5039898;28;20124;-86
2023/05/28 08:24:09;;;;;;;0.75;0.55;;;;;;;18.26;100.00;97437.31;5060155;28;20068;-86
2023/05/28 08:26:34;;;;;;;3.75;1.10;;;;;;;18.03;100.00;97422.34;5063528;28;20056;-86
2023/05/28 08:29:00;;;;;;;2.63;1.38;;;;;;;17.72;100.00;97414.41;5050925;28;20096;-87
2023/05/28 08:31:26;;;;;;;2.08;0.95;;;;;;;17.75;100.00;97424.06;5052223;28;20076;-89
2023/05/28 08:33:51;;;;;;;1.52;1.05;;;;;;;17.82;100.00;97431.50;5052264;28;20563;-87
2023/05/28 08:36:17;;;;;;;2.88;1.75;;;;;;;17.65;100.00;97429.50;5067752;28;20032;-87
2023/05/28 08:38:42;;;;;;;1.27;1.17;;;;;;;17.68;100.00;97428.38;5046659;28;20021;-87
2023/05/28 08:41:08;;;;;;;2.40;1.85;;;;;;;17.62;100.00;97434.34;5068505;28;20035;-88
2023/05/28 08:43:34;;;;;;;1.67;1.42;;;;;;;17.70;100.00;97438.06;5053116;28;20464;-88
2023/05/28 08:45:59;;;;;;;2.30;1.55;;;;;;;17.84;100.00;97444.91;5056134;28;20025;-88
2023/05/28 08:48:25;;;;;;;0.95;0.68;;;;;;;17.75;100.00;97441.16;5041345;28;20033;-88
2023/05/28 08:50:57;;;;;;;7.10;2.85;;;;;;;17.91;100.00;97450.56;5050736;28;20028;-87
2023/05/28 08:53:24;;;;;;;2.83;1.95;;;;;;;17.90;100.00;97435.34;5061217;28;20090;-88
2023/05/28 08:55:49;;;;;;;0.57;0.57;;;;;;;17.79;100.00;97431.78;5059177;28;20024;-87
2023/05/28 08:58:17;;;;;;;0.98;0.65;;;;;;;17.75;100.00;97427.66;5039302;28;20404;-85
2023/05/28 09:00:43;;;;;;;0.50;0.50;;;;;;;17.64;100.00;97427.78;5049727;28;20039;-84
2023/05/28 09:03:08;;;;;;;1.17;0.80;;;;;;;17.72;100.00;97425.22;5028081;28;20021;-86
2023/05/28 09:05:38;;;;;;;2.55;1.20;;;;;;;17.89;100.00;97423.66;5055062;28;20033;-88
2023/05/28 09:08:09;;;;;;;11.80;1.20;;;;;;;17.94;100.00;97428.63;5056397;28;20581;-88
2023/05/28 09:10:39;;;;;;;0.93;0.93;;;;;;;18.09;100.00;97425.34;5072998;28;20404;-83
2023/05/28 09:13:04;;;;;;;1.40;0.75;;;;;;;18.08;100.00;97415.53;5075362;28;20029;-89
2023/05/28 09:15:31;;;;;;;0.50;0.50;;;;;;;18.17;100.00;97406.53;5072634;28;20046;-90
2023/05/28 09:17:59;;;;;;;0.70;0.70;;;;;;;18.39;100.00;97414.31;5047801;28;20086;-90
2023/05/28 09:20:25;;;;;;;0.90;0.75;;;;;;;18.38;100.00;97406.34;5043496;28;20067;-90
2023/05/28 09:23:05;;;;;;;1.85;0.70;;;;;;;18.31;100.00;97402.50;5065821;28;20397;-90
2023/05/28 09:25:35;;;;;;;2.38;1.42;;;;;;;18.22;100.00;97406.09;5048827;28;20040;-90
2023/05/28 09:28:01;;;;;;;2.58;1.42;;;;;;;18.09;100.00;97406.41;5063735;28;20468;-90
2023/05/28 09:30:29;;;;;;;0.45;0.43;;;;;;;18.03;100.00;97406.97;5046948;28;20117;-89
2023/05/28 09:33:02;;;;;;;0.90;0.60;;;;;;;17.96;100.00;97400.44;5042670;28;20032;-89
2023/05/28 09:35:29;;;;;;;0.30;0.30;;;;;;;17.81;100.00;97402.72;5050785;28;20404;-88
2023/05/28 09:38:07;;;;;;;2.67;0.68;;;;;;;17.87;100.00;97401.31;5075136;28;20162;-90
2023/05/28 09:40:41;;;;;;;1.08;0.68;;;;;;;17.86;100.00;97413.13;5042887;28;20036;-91
2023/05/28 09:43:07;;;;;;;1.25;0.90;;;;;;;17.97;100.00;97412.09;5054433;28;20114;-90
2023/05/28 09:45:33;;;;;;;0.73;0.73;;;;;;;18.04;100.00;97405.13;5046621;28;20048;-87
2023/05/28 09:47:59;;;;;;;12.57;6.72;;;;;;;18.17;100.00;97394.84;5062121;28;20106;-89
2023/05/28 09:50:27;;;;;;;3.92;1.83;;;;;;;18.46;100.00;97392.91;5065353;28;20021;-90
2023/05/28 09:52:57;;;;;;;0.57;0.57;;;;;;;18.56;100.00;97387.50;5060529;28;20028;-89
2023/05/28 09:55:25;;;;;;;2.85;1.42;;;;;;;18.82;100.00;97389.41;5059028;28;20028;-89
2023/05/28 09:58:10;;;;;;;2.65;1.63;;;;;;;19.12;100.00;97379.25;5049541;28;20020;-88
2023/05/28 10:00:40;;;;;;;0.77;0.75;;;;;;;19.04;100.00;97376.44;5050305;28;20080;-88
2023/05/28 10:03:12;;;;;;;0.60;0.60;;;;;;;18.86;100.00;97366.38;5044455;28;20028;-88
2023/05/28 10:05:41;;;;;;;1.35;0.98;;;;;;;18.90;100.00;97370.50;5069657;28;20020;-88
2023/05/28 10:08:07;;;;;;;0.35;0.35;;;;;;;18.94;100.00;97366.50;5058575;28;20031;-88
2023/05/28 10:10:33;;;;;;;1.52;0.57;;;;;;;18.93;100.00;97362.09;5071130;28;20033;-88
2023/05/28 10:12:59;;;;;;;0.50;0.50;;;;;;;19.13;100.00;97364.69;5068394;28;20083;-89
2023/05/28 10:15:25;;;;;;;4.45;1.48;;;;;;;19.09;100.00;97350.56;5063316;28;20020;-87
2023/05/28 10:17:51;;;;;;;1.88;1.23;;;;;;;19.07;100.00;97343.59;5055832;28;20415;-87
2023/05/28 10:20:18;;;;;;;2.33;1.10;;;;;;;19.23;100.00;97351.88;5038771;28;20094;-89
2023/05/28 10:22:44;;;;;;;2.58;1.42;;;;;;;19.35;100.00;97350.66;5045510;28;20024;-89
2023/05/28 10:25:10;;;;;;;1.73;1.00;;;;;;;19.41;100.00;97352.81;5041107;28;20028;-89
2023/05/28 10:27:37;;;;;;;0.98;0.80;;;;;;;19.67;100.00;97344.72;5038686;28;20025;-89
2023/05/28 10:30:04;;;;;;;0.50;0.50;;;;;;;19.72;100.00;97335.09;5072769;28;20135;-89
2023/05/28 10:32:30;;;;;;;1.70;1.58;;;;;;;19.96;100.00;97335.28;5060898;28;20040;-87
2023/05/28 10:35:03;;;;;;;1.35;1.10;;;;;;;20.20;100.00;97334.63;5054775;28;20020;-89
2023/05/28 10:37:28;;;;;;;0.25;0.25;;;;;;;20.53;100.00;97311.25;5061689;28;20063;-89
2023/05/28 10:39:54;;;;;;;1.95;1.52;;;;;;;20.48;100.00;97292.72;5038858;28;20028;-87
2023/05/28 10:42:22;;;;;;;3.47;1.83;;;;;;;20.89;100.00;97303.72;5056789;28;20039;-90
2023/05/28 10:45:00;;;;;;;1.60;1.23;;;;;;;21.71;100.00;97298.31;5064371;28;20107;-90
2023/05/28 10:47:36;;;;;;;1.40;1.23;;;;;;;21.97;100.00;97290.81;5056109;28;20033;-90
2023/05/28 10:50:15;;;;;;;1.23;0.80;;;;;;;21.67;100.00;97287.91;5039462;28;20104;-88
2023/05/28 10:52:41;;;;;;;0.90;0.85;;;;;;;21.38;100.00;97293.88;5064665;28;20024;-89
2023/05/28 10:55:09;;;;;;;2.03;0.60;;;;;;;21.08;100.00;97290.75;5056722;28;20016;-89
2023/05/28 10:57:43;;;;;;;1.13;0.80;;;;;;;20.53;100.00;97286.78;5065085;28;20040;-88
2023/05/28 11:00:13;;;;;;;1.27;1.17;;;;;;;20.20;100.00;97304.75;5063948;28;20044;-89
2023/05/28 11:02:44;;;;;;;0.98;0.85;;;;;;;19.81;100.00;97315.16;5071106;28;20028;-89
2023/05/28 11:05:09;;;;;;;1.98;1.10;;;;;;;19.61;100.00;97324.50;5071070;28;20059;-89
2023/05/28 11:07:42;;;;;;;1.35;1.05;;;;;;;19.53;100.00;97319.03;5073892;28;20519;-89
2023/05/28 11:10:09;;;;;;;3.17;1.30;;;;;;;19.47;100.00;97335.91;5044164;28;20029;-89
2023/05/28 11:12:54;;;;;;;3.35;1.00;;;;;;;19.38;100.00;97344.97;5046389;28;20059;-89
2023/05/28 11:15:24;;;;;;;2.92;1.17;;;;;;;19.28;100.00;97352.31;5058985;28;20119;-90
2023/05/28 11:17:49;;;;;;;0.60;0.57;;;;;;;19.14;100.00;97352.81;5038833;28;20028;-89
2023/05/28 11:20:19;;;;;;;0.65;0.50;;;;;;;19.11;100.00;97356.69;5053295;28;20031;-89